sensor_id;sensor_type;location;lat;lon;timestamp;temperature;humidity
63976;DHT22;50167;47.958;21.780;2022-10-28T00:01:29;15.13;57.02
63976;DHT22;50167;47.958;21.780;2022-10-28T00:03:59;13.96;58.58
63976;DHT22;50167;47.958;21.780;2022-10-28T00:06:31;12.93;61.17
63976;DHT22;50167;47.958;21.780;2022-10-28T00:08:58;12.19;63.58
63976;DHT22;50167;47.958;21.780;2022-10-28T00:11:29;12.69;68.24
63976;DHT22;50167;47.958;21.780;2022-10-28T00:13:58;13.89;67.77
63976;DHT22;50167;47.958;21.780;2022-10-28T00:16:27;14.51;63.70
63976;DHT22;50167;47.958;21.780;2022-10-28T00:18:55;14.89;61.70
63976;DHT22;50167;47.958;21.780;2022-10-28T00:21:26;15.17;60.67
63976;DHT22;50167;47.958;21.780;2022-10-28T00:23:53;15.36;59.27
63976;DHT22;50167;47.958;21.780;2022-10-28T00:26:24;14.85;57.78
63976;DHT22;50167;47.958;21.780;2022-10-28T00:28:59;13.68;59.83
63976;DHT22;50167;47.958;21.780;2022-10-28T00:31:28;12.69;62.23
63976;DHT22;50167;47.958;21.780;2022-10-28T00:33:54;13.07;66.85
63976;DHT22;50167;47.958;21.780;2022-10-28T00:36:27;14.17;64.78
63976;DHT22;50167;47.958;21.780;2022-10-28T00:38:55;14.67;61.90
63976;DHT22;50167;47.958;21.780;2022-10-28T00:41:25;14.98;60.72
63976;DHT22;50167;47.958;21.780;2022-10-28T00:44:02;15.26;59.71
63976;DHT22;50167;47.958;21.780;2022-10-28T00:46:44;15.49;59.33
63976;DHT22;50167;47.958;21.780;2022-10-28T00:49:21;14.78;57.43
63976;DHT22;50167;47.958;21.780;2022-10-28T00:51:52;13.55;59.25
63976;DHT22;50167;47.958;21.780;2022-10-28T00:54:19;12.61;61.54
63976;DHT22;50167;47.958;21.780;2022-10-28T00:56:50;12.80;66.27
63976;DHT22;50167;47.958;21.780;2022-10-28T00:59:25;13.98;65.09
63976;DHT22;50167;47.958;21.780;2022-10-28T01:01:52;14.44;62.43
63976;DHT22;50167;47.958;21.780;2022-10-28T01:04:19;14.77;61.48
63976;DHT22;50167;47.958;21.780;2022-10-28T01:06:47;15.00;60.45
63976;DHT22;50167;47.958;21.780;2022-10-28T01:09:14;15.07;60.13
63976;DHT22;50167;47.958;21.780;2022-10-28T01:12:20;15.17;59.78
63976;DHT22;50167;47.958;21.780;2022-10-28T01:21:22;13.30;60.25
63976;DHT22;50167;47.958;21.780;2022-10-28T01:32:58;14.29;62.42
63976;DHT22;50167;47.958;21.780;2022-10-28T01:35:36;14.48;61.79
63976;DHT22;50167;47.958;21.780;2022-10-28T01:41:13;14.78;61.06
63976;DHT22;50167;47.958;21.780;2022-10-28T01:46:44;15.26;60.01
63976;DHT22;50167;47.958;21.780;2022-10-28T01:49:21;15.46;59.55
63976;DHT22;50167;47.958;21.780;2022-10-28T01:51:51;14.98;58.15
63976;DHT22;50167;47.958;21.780;2022-10-28T01:54:23;13.85;59.71
63976;DHT22;50167;47.958;21.780;2022-10-28T01:56:52;12.95;61.54
63976;DHT22;50167;47.958;21.780;2022-10-28T01:59:22;12.16;62.87
63976;DHT22;50167;47.958;21.780;2022-10-28T02:01:49;12.62;70.41
63976;DHT22;50167;47.958;21.780;2022-10-28T02:04:15;13.79;66.77
63976;DHT22;50167;47.958;21.780;2022-10-28T02:06:43;14.61;63.76
63976;DHT22;50167;47.958;21.780;2022-10-28T02:09:48;15.05;61.80
63976;DHT22;50167;47.958;21.780;2022-10-28T02:12:25;15.33;60.12
63976;DHT22;50167;47.958;21.780;2022-10-28T02:15:33;15.58;59.03
63976;DHT22;50167;47.958;21.780;2022-10-28T02:18:22;14.65;57.31
63976;DHT22;50167;47.958;21.780;2022-10-28T02:23:44;12.37;62.60
63976;DHT22;50167;47.958;21.780;2022-10-28T02:26:21;12.96;67.57
63976;DHT22;50167;47.958;21.780;2022-10-28T02:29:28;14.20;64.91
63976;DHT22;50167;47.958;21.780;2022-10-28T02:32:02;14.88;61.77
63976;DHT22;50167;47.958;21.780;2022-10-28T02:34:37;15.25;60.44
63976;DHT22;50167;47.958;21.780;2022-10-28T02:37:07;15.56;59.38
63976;DHT22;50167;47.958;21.780;2022-10-28T02:39:41;15.00;57.55
63976;DHT22;50167;47.958;21.780;2022-10-28T02:42:20;13.70;59.44
63976;DHT22;50167;47.958;21.780;2022-10-28T02:44:48;12.74;62.26
63976;DHT22;50167;47.958;21.780;2022-10-28T02:47:19;13.04;66.24
63976;DHT22;50167;47.958;21.780;2022-10-28T02:49:54;14.19;65.18
63976;DHT22;50167;47.958;21.780;2022-10-28T02:52:21;14.88;62.42
63976;DHT22;50167;47.958;21.780;2022-10-28T02:54:56;15.23;61.23
63976;DHT22;50167;47.958;21.780;2022-10-28T02:57:30;15.47;60.44
63976;DHT22;50167;47.958;21.780;2022-10-28T03:00:02;15.65;59.74
63976;DHT22;50167;47.958;21.780;2022-10-28T03:02:28;15.77;59.04
63976;DHT22;50167;47.958;21.780;2022-10-28T03:04:54;15.12;57.37
63976;DHT22;50167;47.958;21.780;2022-10-28T03:07:20;13.88;59.16
63976;DHT22;50167;47.958;21.780;2022-10-28T03:09:46;12.87;62.62
63976;DHT22;50167;47.958;21.780;2022-10-28T03:12:12;13.14;66.36
63976;DHT22;50167;47.958;21.780;2022-10-28T03:14:38;14.16;65.41
63976;DHT22;50167;47.958;21.780;2022-10-28T03:17:04;14.84;63.17
63976;DHT22;50167;47.958;21.780;2022-10-28T03:19:32;15.22;61.66
63976;DHT22;50167;47.958;21.780;2022-10-28T03:21:59;15.47;60.96
63976;DHT22;50167;47.958;21.780;2022-10-28T03:24:25;15.68;60.36
63976;DHT22;50167;47.958;21.780;2022-10-28T03:26:51;15.86;59.85
63976;DHT22;50167;47.958;21.780;2022-10-28T03:29:17;15.99;59.42
63976;DHT22;50167;47.958;21.780;2022-10-28T03:31:43;15.49;57.62
63976;DHT22;50167;47.958;21.780;2022-10-28T03:34:09;14.21;59.28
63976;DHT22;50167;47.958;21.780;2022-10-28T03:36:35;13.19;62.48
63976;DHT22;50167;47.958;21.780;2022-10-28T03:39:02;13.41;66.50
63976;DHT22;50167;47.958;21.780;2022-10-28T03:41:28;14.40;65.54
63976;DHT22;50167;47.958;21.780;2022-10-28T03:43:54;15.05;62.96
63976;DHT22;50167;47.958;21.780;2022-10-28T03:46:20;15.43;61.77
63976;DHT22;50167;47.958;21.780;2022-10-28T03:48:46;15.68;60.98
63976;DHT22;50167;47.958;21.780;2022-10-28T03:51:12;15.82;60.12
63976;DHT22;50167;47.958;21.780;2022-10-28T03:53:38;15.95;59.46
63976;DHT22;50167;47.958;21.780;2022-10-28T03:56:05;15.49;57.77
63976;DHT22;50167;47.958;21.780;2022-10-28T03:58:32;14.27;59.37
63976;DHT22;50167;47.958;21.780;2022-10-28T04:00:58;13.29;62.15
63976;DHT22;50167;47.958;21.780;2022-10-28T04:03:24;13.58;66.60
63976;DHT22;50167;47.958;21.780;2022-10-28T04:05:51;14.65;64.95
63976;DHT22;50167;47.958;21.780;2022-10-28T04:08:17;15.16;62.41
63976;DHT22;50167;47.958;21.780;2022-10-28T04:10:44;15.34;61.48
63976;DHT22;50167;47.958;21.780;2022-10-28T04:13:11;15.50;60.91
63976;DHT22;50167;47.958;21.780;2022-10-28T04:15:37;15.67;60.32
63976;DHT22;50167;47.958;21.780;2022-10-28T04:18:04;15.84;59.75
63976;DHT22;50167;47.958;21.780;2022-10-28T04:20:31;15.95;59.38
63976;DHT22;50167;47.958;21.780;2022-10-28T04:22:57;15.37;57.90
63976;DHT22;50167;47.958;21.780;2022-10-28T04:25:25;14.24;59.80
63976;DHT22;50167;47.958;21.780;2022-10-28T04:27:51;13.34;62.09
63976;DHT22;50167;47.958;21.780;2022-10-28T04:30:18;13.57;66.10
63976;DHT22;50167;47.958;21.780;2022-10-28T04:32:44;14.56;64.96
63976;DHT22;50167;47.958;21.780;2022-10-28T04:35:12;15.09;62.84
63976;DHT22;50167;47.958;21.780;2022-10-28T04:37:40;15.44;61.58
63976;DHT22;50167;47.958;21.780;2022-10-28T04:40:08;15.73;60.71
63976;DHT22;50167;47.958;21.780;2022-10-28T04:42:34;15.96;59.54
63976;DHT22;50167;47.958;21.780;2022-10-28T04:45:00;15.51;58.27
63976;DHT22;50167;47.958;21.780;2022-10-28T04:47:26;14.44;59.73
63976;DHT22;50167;47.958;21.780;2022-10-28T04:49:52;13.57;61.94
63976;DHT22;50167;47.958;21.780;2022-10-28T04:52:18;13.82;65.85
63976;DHT22;50167;47.958;21.780;2022-10-28T04:54:45;14.88;64.17
63976;DHT22;50167;47.958;21.780;2022-10-28T04:57:11;15.53;62.07
63976;DHT22;50167;47.958;21.780;2022-10-28T04:59:37;15.89;60.53
63976;DHT22;50167;47.958;21.780;2022-10-28T05:02:03;16.13;59.61
63976;DHT22;50167;47.958;21.780;2022-10-28T05:04:29;15.74;57.99
63976;DHT22;50167;47.958;21.780;2022-10-28T05:06:55;14.63;59.39
63976;DHT22;50167;47.958;21.780;2022-10-28T05:09:21;13.74;61.42
63976;DHT22;50167;47.958;21.780;2022-10-28T05:11:47;13.00;63.37
63976;DHT22;50167;47.958;21.780;2022-10-28T05:14:13;13.50;67.71
63976;DHT22;50167;47.958;21.780;2022-10-28T05:16:39;14.54;66.02
63976;DHT22;50167;47.958;21.780;2022-10-28T05:19:05;15.06;63.45
63976;DHT22;50167;47.958;21.780;2022-10-28T05:21:31;15.39;62.85
63976;DHT22;50167;47.958;21.780;2022-10-28T05:23:57;15.58;61.96
63976;DHT22;50167;47.958;21.780;2022-10-28T05:26:23;15.84;61.11
63976;DHT22;50167;47.958;21.780;2022-10-28T05:28:50;16.09;60.23
63976;DHT22;50167;47.958;21.780;2022-10-28T05:31:17;16.28;59.70
63976;DHT22;50167;47.958;21.780;2022-10-28T05:33:43;15.82;58.11
63976;DHT22;50167;47.958;21.780;2022-10-28T05:36:10;14.71;59.90
63976;DHT22;50167;47.958;21.780;2022-10-28T05:38:36;13.78;61.99
63976;DHT22;50167;47.958;21.780;2022-10-28T05:41:02;13.93;66.21
63976;DHT22;50167;47.958;21.780;2022-10-28T05:43:28;15.09;64.91
63976;DHT22;50167;47.958;21.780;2022-10-28T05:45:56;15.88;62.26
63976;DHT22;50167;47.958;21.780;2022-10-28T05:48:23;16.32;60.26
63976;DHT22;50167;47.958;21.780;2022-10-28T05:50:49;16.50;59.12
63976;DHT22;50167;47.958;21.780;2022-10-28T05:53:16;16.04;57.76
63976;DHT22;50167;47.958;21.780;2022-10-28T05:55:42;14.95;59.56
63976;DHT22;50167;47.958;21.780;2022-10-28T05:58:08;14.13;61.70
63976;DHT22;50167;47.958;21.780;2022-10-28T06:00:35;13.47;63.55
63976;DHT22;50167;47.958;21.780;2022-10-28T06:03:05;14.00;67.58
63976;DHT22;50167;47.958;21.780;2022-10-28T06:05:34;15.15;64.99
63976;DHT22;50167;47.958;21.780;2022-10-28T06:08:02;15.78;62.36
63976;DHT22;50167;47.958;21.780;2022-10-28T06:10:28;16.25;61.07
63976;DHT22;50167;47.958;21.780;2022-10-28T06:12:56;16.51;60.02
63976;DHT22;50167;47.958;21.780;2022-10-28T06:15:22;16.78;59.23
63976;DHT22;50167;47.958;21.780;2022-10-28T06:17:49;16.35;57.36
63976;DHT22;50167;47.958;21.780;2022-10-28T06:20:16;15.30;59.28
63976;DHT22;50167;47.958;21.780;2022-10-28T06:22:51;14.47;61.37
63976;DHT22;50167;47.958;21.780;2022-10-28T06:25:19;13.77;63.06
63976;DHT22;50167;47.958;21.780;2022-10-28T06:30:22;15.56;64.52
63976;DHT22;50167;47.958;21.780;2022-10-28T06:32:48;16.23;62.15
63976;DHT22;50167;47.958;21.780;2022-10-28T06:35:15;16.60;60.34
63976;DHT22;50167;47.958;21.780;2022-10-28T06:37:41;16.86;59.33
63976;DHT22;50167;47.958;21.780;2022-10-28T06:40:08;16.50;57.16
63976;DHT22;50167;47.958;21.780;2022-10-28T06:42:34;15.34;59.16
63976;DHT22;50167;47.958;21.780;2022-10-28T06:45:00;14.44;61.63
63976;DHT22;50167;47.958;21.780;2022-10-28T06:47:26;13.78;63.62
63976;DHT22;50167;47.958;21.780;2022-10-28T06:49:52;14.26;67.46
63976;DHT22;50167;47.958;21.780;2022-10-28T06:52:18;15.57;65.78
63976;DHT22;50167;47.958;21.780;2022-10-28T06:54:44;16.40;62.83
63976;DHT22;50167;47.958;21.780;2022-10-28T06:57:10;16.94;60.46
63976;DHT22;50167;47.958;21.780;2022-10-28T06:59:37;17.36;58.65
63976;DHT22;50167;47.958;21.780;2022-10-28T07:02:03;16.88;56.79
63976;DHT22;50167;47.958;21.780;2022-10-28T07:04:29;15.84;58.46
63976;DHT22;50167;47.958;21.780;2022-10-28T07:06:56;14.94;60.48
63976;DHT22;50167;47.958;21.780;2022-10-28T07:09:23;14.30;63.26
63976;DHT22;50167;47.958;21.780;2022-10-28T07:11:49;14.86;67.18
63976;DHT22;50167;47.958;21.780;2022-10-28T07:14:16;16.09;64.48
63976;DHT22;50167;47.958;21.780;2022-10-28T07:16:42;16.77;61.51
63976;DHT22;50167;47.958;21.780;2022-10-28T07:19:08;17.16;60.41
63976;DHT22;50167;47.958;21.780;2022-10-28T07:21:35;17.40;59.65
63976;DHT22;50167;47.958;21.780;2022-10-28T07:24:01;17.53;59.21
63976;DHT22;50167;47.958;21.780;2022-10-28T07:26:27;17.12;57.86
63976;DHT22;50167;47.958;21.780;2022-10-28T07:28:53;16.07;59.20
63976;DHT22;50167;47.958;21.780;2022-10-28T07:31:20;15.23;61.64
63976;DHT22;50167;47.958;21.780;2022-10-28T07:33:53;15.44;65.87
63976;DHT22;50167;47.958;21.780;2022-10-28T07:36:20;16.59;63.77
63976;DHT22;50167;47.958;21.780;2022-10-28T07:38:51;17.23;61.92
63976;DHT22;50167;47.958;21.780;2022-10-28T07:41:20;17.64;60.19
63976;DHT22;50167;47.958;21.780;2022-10-28T07:43:47;17.91;59.07
63976;DHT22;50167;47.958;21.780;2022-10-28T07:46:14;17.50;58.02
63976;DHT22;50167;47.958;21.780;2022-10-28T07:48:40;16.51;59.56
63976;DHT22;50167;47.958;21.780;2022-10-28T07:51:07;15.71;61.91
63976;DHT22;50167;47.958;21.780;2022-10-28T07:53:35;16.16;65.54
63976;DHT22;50167;47.958;21.780;2022-10-28T07:56:05;17.30;63.24
63976;DHT22;50167;47.958;21.780;2022-10-28T07:58:33;17.93;60.77
63976;DHT22;50167;47.958;21.780;2022-10-28T08:01:06;18.07;59.48
63976;DHT22;50167;47.958;21.780;2022-10-28T08:03:35;17.56;58.64
63976;DHT22;50167;47.958;21.780;2022-10-28T08:06:05;16.60;60.64
63976;DHT22;50167;47.958;21.780;2022-10-28T08:08:32;15.80;62.68
63976;DHT22;50167;47.958;21.780;2022-10-28T08:10:58;16.13;65.96
63976;DHT22;50167;47.958;21.780;2022-10-28T08:13:24;17.21;64.17
63976;DHT22;50167;47.958;21.780;2022-10-28T08:15:54;17.95;61.99
63976;DHT22;50167;47.958;21.780;2022-10-28T08:18:21;18.39;60.69
63976;DHT22;50167;47.958;21.780;2022-10-28T08:20:48;18.71;60.00
63976;DHT22;50167;47.958;21.780;2022-10-28T08:23:14;19.01;58.64
63976;DHT22;50167;47.958;21.780;2022-10-28T08:25:49;18.71;57.20
63976;DHT22;50167;47.958;21.780;2022-10-28T08:28:16;17.69;58.93
63976;DHT22;50167;47.958;21.780;2022-10-28T08:30:48;16.77;61.78
63976;DHT22;50167;47.958;21.780;2022-10-28T08:33:16;16.98;64.72
63976;DHT22;50167;47.958;21.780;2022-10-28T08:35:42;17.95;63.14
63976;DHT22;50167;47.958;21.780;2022-10-28T08:38:08;18.67;60.65
63976;DHT22;50167;47.958;21.780;2022-10-28T08:49:01;17.85;59.90
63976;DHT22;50167;47.958;21.780;2022-10-28T08:51:40;17.21;61.96
63976;DHT22;50167;47.958;21.780;2022-10-28T08:54:13;17.69;64.15
63976;DHT22;50167;47.958;21.780;2022-10-28T08:56:43;18.69;61.92
63976;DHT22;50167;47.958;21.780;2022-10-28T08:59:17;19.28;59.77
63976;DHT22;50167;47.958;21.780;2022-10-28T09:01:53;19.73;58.68
63976;DHT22;50167;47.958;21.780;2022-10-28T09:04:27;19.35;57.78
63976;DHT22;50167;47.958;21.780;2022-10-28T09:06:53;18.46;59.31
63976;DHT22;50167;47.958;21.780;2022-10-28T09:09:21;17.76;61.37
63976;DHT22;50167;47.958;21.780;2022-10-28T09:15:14;18.09;64.67
63976;DHT22;50167;47.958;21.780;2022-10-28T09:18:45;19.21;61.43
63976;DHT22;50167;47.958;21.780;2022-10-28T09:20:51;19.90;59.75
63976;DHT22;50167;47.958;21.780;2022-10-28T09:34:47;19.99;60.39
63976;DHT22;50167;47.958;21.780;2022-10-28T09:37:19;20.46;60.68
63976;DHT22;50167;47.958;21.780;2022-10-28T09:40:00;20.80;57.94
63976;DHT22;50167;47.958;21.780;2022-10-28T09:42:36;20.15;58.26
63976;DHT22;50167;47.958;21.780;2022-10-28T09:45:26;19.12;59.51
63976;DHT22;50167;47.958;21.780;2022-10-28T09:48:28;18.33;61.75
63976;DHT22;50167;47.958;21.780;2022-10-28T09:50:56;17.74;63.74
63976;DHT22;50167;47.958;21.780;2022-10-28T09:53:47;18.22;65.19
63976;DHT22;50167;47.958;21.780;2022-10-28T09:56:12;19.42;63.36
63976;DHT22;50167;47.958;21.780;2022-10-28T09:58:46;20.21;60.77
63976;DHT22;50167;47.958;21.780;2022-10-28T10:01:17;20.75;58.59
63976;DHT22;50167;47.958;21.780;2022-10-28T10:03:41;20.42;57.69
63976;DHT22;50167;47.958;21.780;2022-10-28T10:06:30;19.59;59.04
63976;DHT22;50167;47.958;21.780;2022-10-28T10:08:56;18.84;60.85
63976;DHT22;50167;47.958;21.780;2022-10-28T10:11:36;18.35;62.84
63976;DHT22;50167;47.958;21.780;2022-10-28T10:14:07;18.91;64.33
63976;DHT22;50167;47.958;21.780;2022-10-28T10:16:58;20.10;62.15
63976;DHT22;50167;47.958;21.780;2022-10-28T10:19:25;-128.00;-1.00
63976;DHT22;50167;47.958;21.780;2022-10-28T10:21:53;-128.00;-1.00
63976;DHT22;50167;47.958;21.780;2022-10-28T10:24:33;-128.00;-1.00
63976;DHT22;50167;47.958;21.780;2022-10-28T10:29:51;-128.00;-1.00
63976;DHT22;50167;47.958;21.780;2022-10-28T10:32:29;-128.00;-1.00
63976;DHT22;50167;47.958;21.780;2022-10-28T10:35:27;-128.00;-1.00
63976;DHT22;50167;47.958;21.780;2022-10-28T10:37:47;-128.00;-1.00
63976;DHT22;50167;47.958;21.780;2022-10-28T10:40:23;-128.00;-1.00
63976;DHT22;50167;47.958;21.780;2022-10-28T10:42:51;-128.00;-1.00
63976;DHT22;50167;47.958;21.780;2022-10-28T10:45:23;-128.00;-1.00
63976;DHT22;50167;47.958;21.780;2022-10-28T10:48:13;-128.00;-1.00
63976;DHT22;50167;47.958;21.780;2022-10-28T10:50:44;-128.00;-1.00
63976;DHT22;50167;47.958;21.780;2022-10-28T10:56:07;-128.00;-1.00
63976;DHT22;50167;47.958;21.780;2022-10-28T10:58:45;-128.00;-1.00
63976;DHT22;50167;47.958;21.780;2022-10-28T11:01:10;-128.00;-1.00
63976;DHT22;50167;47.958;21.780;2022-10-28T11:04:01;-128.00;-1.00
63976;DHT22;50167;47.958;21.780;2022-10-28T11:09:35;21.80;53.91
63976;DHT22;50167;47.958;21.780;2022-10-28T11:12:29;20.66;55.62
63976;DHT22;50167;47.958;21.780;2022-10-28T11:15:21;19.70;57.22
63976;DHT22;50167;47.958;21.780;2022-10-28T11:18:01;19.01;59.64
63976;DHT22;50167;47.958;21.780;2022-10-28T11:20:53;18.53;61.01
63976;DHT22;50167;47.958;21.780;2022-10-28T11:26:25;18.95;64.24
63976;DHT22;50167;47.958;21.780;2022-10-28T11:31:48;20.62;59.04
63976;DHT22;50167;47.958;21.780;2022-10-28T11:43:35;19.12;63.79
63976;DHT22;50167;47.958;21.780;2022-10-28T11:46:13;20.25;60.69
63976;DHT22;50167;47.958;21.780;2022-10-28T11:52:16;20.38;58.12
63976;DHT22;50167;47.958;21.780;2022-10-28T11:54:54;19.27;60.07
63976;DHT22;50167;47.958;21.780;2022-10-28T11:57:37;18.60;62.11
63976;DHT22;50167;47.958;21.780;2022-10-28T12:00:13;19.02;63.51
63976;DHT22;50167;47.958;21.780;2022-10-28T12:17:16;18.48;63.65
63976;DHT22;50167;47.958;21.780;2022-10-28T12:19:57;19.01;63.71
63976;DHT22;50167;47.958;21.780;2022-10-28T12:22:39;20.07;62.37
63976;DHT22;50167;47.958;21.780;2022-10-28T12:25:11;20.82;59.76
63976;DHT22;50167;47.958;21.780;2022-10-28T12:27:40;20.73;57.56
63976;DHT22;50167;47.958;21.780;2022-10-28T12:30:23;19.88;58.84
63976;DHT22;50167;47.958;21.780;2022-10-28T12:32:55;19.11;60.27
63976;DHT22;50167;47.958;21.780;2022-10-28T12:35:29;18.63;62.21
63976;DHT22;50167;47.958;21.780;2022-10-28T12:38:14;19.12;63.54
63976;DHT22;50167;47.958;21.780;2022-10-28T12:44:03;21.22;58.95
63976;DHT22;50167;47.958;21.780;2022-10-28T12:49:18;19.76;59.26
63976;DHT22;50167;47.958;21.780;2022-10-28T12:51:44;18.97;55.66
63976;DHT22;50167;47.958;21.780;2022-10-28T12:57:15;19.14;64.47
63976;DHT22;50167;47.958;21.780;2022-10-28T12:59:54;20.38;61.51
63976;DHT22;50167;47.958;21.780;2022-10-28T13:02:23;21.18;58.78
63976;DHT22;50167;47.958;21.780;2022-10-28T13:04:49;20.84;57.49
63976;DHT22;50167;47.958;21.780;2022-10-28T13:10:11;19.08;60.68
63976;DHT22;50167;47.958;21.780;2022-10-28T13:13:17;18.60;62.65
63976;DHT22;50167;47.958;21.780;2022-10-28T13:24:23;21.21;56.30
63976;DHT22;50167;47.958;21.780;2022-10-28T13:26:49;20.27;58.23
63976;DHT22;50167;47.958;21.780;2022-10-28T13:29:29;19.56;59.94
63976;DHT22;50167;47.958;21.780;2022-10-28T13:31:56;19.02;61.35
63976;DHT22;50167;47.958;21.780;2022-10-28T13:34:34;18.64;63.10
63976;DHT22;50167;47.958;21.780;2022-10-28T13:37:04;19.25;64.12
63976;DHT22;50167;47.958;21.780;2022-10-28T13:39:45;20.29;62.45
63976;DHT22;50167;47.958;21.780;2022-10-28T13:47:35;21.22;56.27
63976;DHT22;50167;47.958;21.780;2022-10-28T13:50:15;20.23;58.56
63976;DHT22;50167;47.958;21.780;2022-10-28T13:52:46;19.49;60.05
63976;DHT22;50167;47.958;21.780;2022-10-28T13:55:40;18.95;57.49
63976;DHT22;50167;47.958;21.780;2022-10-28T13:58:03;18.52;62.27
63976;DHT22;50167;47.958;21.780;2022-10-28T14:00:33;19.08;63.89
63976;DHT22;50167;47.958;21.780;2022-10-28T14:03:03;20.13;62.23
63976;DHT22;50167;47.958;21.780;2022-10-28T14:08:26;21.36;58.98
63976;DHT22;50167;47.958;21.780;2022-10-28T14:11:20;20.87;57.60
63976;DHT22;50167;47.958;21.780;2022-10-28T14:13:55;19.77;60.29
63976;DHT22;50167;47.958;21.780;2022-10-28T14:16:33;18.93;62.03
63976;DHT22;50167;47.958;21.780;2022-10-28T14:22:09;18.80;65.73
63976;DHT22;50167;47.958;21.780;2022-10-28T14:24:39;19.90;63.49
63976;DHT22;50167;47.958;21.780;2022-10-28T14:29:47;20.84;60.51
63976;DHT22;50167;47.958;21.780;2022-10-28T14:32:40;21.15;59.23
63976;DHT22;50167;47.958;21.780;2022-10-28T14:43:57;18.98;64.73
63976;DHT22;50167;47.958;21.780;2022-10-28T14:46:47;20.07;62.68
63976;DHT22;50167;47.958;21.780;2022-10-28T14:49:23;20.59;61.10
63976;DHT22;50167;47.958;21.780;2022-10-28T14:51:49;20.82;60.00
63976;DHT22;50167;47.958;21.780;2022-10-28T14:54:42;21.00;59.12
63976;DHT22;50167;47.958;21.780;2022-10-28T14:57:05;20.39;58.58
63976;DHT22;50167;47.958;21.780;2022-10-28T14:59:37;19.34;60.43
63976;DHT22;50167;47.958;21.780;2022-10-28T15:02:17;18.52;62.75
63976;DHT22;50167;47.958;21.780;2022-10-28T15:04:46;18.83;64.45
63976;DHT22;50167;47.958;21.780;2022-10-28T15:07:17;19.73;63.89
63976;DHT22;50167;47.958;21.780;2022-10-28T15:09:46;20.36;61.83
63976;DHT22;50167;47.958;21.780;2022-10-28T15:12:20;20.82;60.37
63976;DHT22;50167;47.958;21.780;2022-10-28T15:14:49;21.20;58.92
63976;DHT22;50167;47.958;21.780;2022-10-28T15:17:23;20.75;57.69
63976;DHT22;50167;47.958;21.780;2022-10-28T15:19:56;19.59;59.88
63976;DHT22;50167;47.958;21.780;2022-10-28T15:22:30;18.64;62.27
63976;DHT22;50167;47.958;21.780;2022-10-28T15:25:05;18.83;65.04
63976;DHT22;50167;47.958;21.780;2022-10-28T15:27:36;19.83;63.37
63976;DHT22;50167;47.958;21.780;2022-10-28T15:30:23;20.35;61.48
63976;DHT22;50167;47.958;21.780;2022-10-28T15:32:54;20.80;60.01
63976;DHT22;50167;47.958;21.780;2022-10-28T15:35:35;21.03;59.12
63976;DHT22;50167;47.958;21.780;2022-10-28T15:38:29;20.45;58.18
63976;DHT22;50167;47.958;21.780;2022-10-28T15:40:52;19.25;60.33
63976;DHT22;50167;47.958;21.780;2022-10-28T15:45:50;18.69;65.35
63976;DHT22;50167;47.958;21.780;2022-10-28T15:48:25;19.56;63.89
63976;DHT22;50167;47.958;21.780;2022-10-28T15:51:17;20.11;62.18
63976;DHT22;50167;47.958;21.780;2022-10-28T15:53:46;20.48;60.94
63976;DHT22;50167;47.958;21.780;2022-10-28T15:56:18;20.80;59.56
63976;DHT22;50167;47.958;21.780;2022-10-28T15:58:48;20.38;58.42
63976;DHT22;50167;47.958;21.780;2022-10-28T16:01:38;19.32;60.18
63976;DHT22;50167;47.958;21.780;2022-10-28T16:04:40;18.36;62.27
63976;DHT22;50167;47.958;21.780;2022-10-28T16:06:36;18.71;65.10
63976;DHT22;50167;47.958;21.780;2022-10-28T16:09:24;19.62;61.82
63976;DHT22;50167;47.958;21.780;2022-10-28T16:11:56;20.27;60.62
63976;DHT22;50167;47.958;21.780;2022-10-28T16:14:38;20.56;59.44
63976;DHT22;50167;47.958;21.780;2022-10-28T16:17:24;20.04;58.68
63976;DHT22;50167;47.958;21.780;2022-10-28T16:20:30;18.88;60.77
63976;DHT22;50167;47.958;21.780;2022-10-28T16:22:33;18.04;63.41
63976;DHT22;50167;47.958;21.780;2022-10-28T16:25:00;18.35;65.67
63976;DHT22;50167;47.958;21.780;2022-10-28T16:27:31;19.22;64.06
63976;DHT22;50167;47.958;21.780;2022-10-28T16:29:57;19.81;63.64
63976;DHT22;50167;47.958;21.780;2022-10-28T16:32:30;20.11;61.53
63976;DHT22;50167;47.958;21.780;2022-10-28T16:34:58;20.42;60.25
63976;DHT22;50167;47.958;21.780;2022-10-28T16:37:30;20.63;59.47
63976;DHT22;50167;47.958;21.780;2022-10-28T16:39:57;20.27;58.38
63976;DHT22;50167;47.958;21.780;2022-10-28T16:42:23;19.27;60.38
63976;DHT22;50167;47.958;21.780;2022-10-28T16:44:50;18.45;62.30
63976;DHT22;50167;47.958;21.780;2022-10-28T16:47:19;18.63;64.74
63976;DHT22;50167;47.958;21.780;2022-10-28T16:49:46;19.41;63.87
63976;DHT22;50167;47.958;21.780;2022-10-28T16:52:24;19.88;62.33
63976;DHT22;50167;47.958;21.780;2022-10-28T16:54:51;20.23;61.26
63976;DHT22;50167;47.958;21.780;2022-10-28T16:57:18;20.53;60.24
63976;DHT22;50167;47.958;21.780;2022-10-28T16:59:46;20.76;59.38
63976;DHT22;50167;47.958;21.780;2022-10-28T17:02:33;20.27;58.70
63976;DHT22;50167;47.958;21.780;2022-10-28T17:05:01;19.00;61.14
63976;DHT22;50167;47.958;21.780;2022-10-28T17:07:29;18.22;63.03
63976;DHT22;50167;47.958;21.780;2022-10-28T17:09:55;18.52;65.47
63976;DHT22;50167;47.958;21.780;2022-10-28T17:12:24;19.36;63.40
63976;DHT22;50167;47.958;21.780;2022-10-28T17:14:51;19.86;62.51
63976;DHT22;50167;47.958;21.780;2022-10-28T17:17:18;20.14;61.40
63976;DHT22;50167;47.958;21.780;2022-10-28T17:19:44;20.38;60.67
63976;DHT22;50167;47.958;21.780;2022-10-28T17:22:12;20.62;59.71
63976;DHT22;50167;47.958;21.780;2022-10-28T17:24:38;20.20;58.79
63976;DHT22;50167;47.958;21.780;2022-10-28T17:27:05;19.11;60.88
63976;DHT22;50167;47.958;21.780;2022-10-28T17:29:32;18.25;63.09
63976;DHT22;50167;47.958;21.780;2022-10-28T17:31:58;18.45;65.45
63976;DHT22;50167;47.958;21.780;2022-10-28T17:34:24;19.31;63.46
63976;DHT22;50167;47.958;21.780;2022-10-28T17:36:50;19.91;61.67
63976;DHT22;50167;47.958;21.780;2022-10-28T17:39:16;20.23;60.50
63976;DHT22;50167;47.958;21.780;2022-10-28T17:41:43;20.45;59.77
63976;DHT22;50167;47.958;21.780;2022-10-28T17:44:09;20.63;58.92
63976;DHT22;50167;47.958;21.780;2022-10-28T17:46:35;20.15;58.07
63976;DHT22;50167;47.958;21.780;2022-10-28T17:49:01;19.09;59.90
63976;DHT22;50167;47.958;21.780;2022-10-28T17:51:29;18.26;61.85
63976;DHT22;50167;47.958;21.780;2022-10-28T17:53:56;18.36;64.76
63976;DHT22;50167;47.958;21.780;2022-10-28T17:56:23;19.28;63.40
63976;DHT22;50167;47.958;21.780;2022-10-28T17:58:51;19.90;61.65